createdAt,value
2022-11-17T00:00:06.642Z,0
2022-11-17T00:00:38.970Z,0
2022-11-17T00:01:10.943Z,0
2022-11-17T00:01:42.665Z,0
2022-11-17T00:02:12.234Z,0
2022-11-17T00:02:44.455Z,0
2022-11-17T00:03:18.888Z,0
2022-11-17T00:03:41.688Z,0
2022-11-17T00:04:04.740Z,0
2022-11-17T00:04:38.649Z,0
2022-11-17T00:05:10.802Z,0
2022-11-17T00:05:42.729Z,0
2022-11-17T00:06:12.859Z,0
2022-11-17T00:06:43.973Z,0
2022-11-17T00:07:19.365Z,0
2022-11-17T00:07:41.816Z,0
2022-11-17T00:08:04.173Z,0
2022-11-17T00:08:38.768Z,0
2022-11-17T00:09:11.176Z,0
2022-11-17T00:09:43.146Z,0
2022-11-17T00:10:14.555Z,0
2022-11-17T00:10:46.778Z,0
2022-11-17T00:11:18.596Z,0
2022-11-17T00:11:41.424Z,0
2022-11-17T00:12:03.848Z,0
2022-11-17T00:12:38.784Z,0
2022-11-17T00:13:10.631Z,0
2022-11-17T00:13:42.856Z,0
2022-11-17T00:14:12.828Z,0
2022-11-17T00:14:43.813Z,0
2022-11-17T00:15:18.934Z,0
2022-11-17T00:15:41.431Z,0
2022-11-17T00:16:05.335Z,0
2022-11-17T00:16:39.478Z,0
2022-11-17T00:17:11.123Z,0
2022-11-17T00:17:42.788Z,0
2022-11-17T00:18:12.128Z,0
2022-11-17T00:18:43.873Z,0
2022-11-17T00:19:18.802Z,0
2022-11-17T00:19:41.602Z,0
2022-11-17T00:20:04.547Z,0
2022-11-17T00:20:39.142Z,0
2022-11-17T00:21:10.884Z,0
2022-11-17T00:21:42.935Z,0
2022-11-17T00:22:15.987Z,0
2022-11-17T00:22:38.658Z,0
2022-11-17T00:23:00.915Z,0
2022-11-17T00:23:35.322Z,0
2022-11-17T00:24:06.915Z,0
2022-11-17T00:24:40.625Z,0
2022-11-17T00:25:10.719Z,0
2022-11-17T00:25:42.696Z,0
2022-11-17T00:26:12.192Z,0
2022-11-17T00:26:43.776Z,0
2022-11-17T00:27:18.772Z,0
2022-11-17T00:27:41.301Z,0
2022-11-17T00:28:04.032Z,0
2022-11-17T00:28:38.611Z,0
2022-11-17T00:29:11.041Z,0
2022-11-17T00:29:42.806Z,0
2022-11-17T00:30:12.347Z,0
2022-11-17T00:30:44.383Z,0
2022-11-17T00:31:18.726Z,0
2022-11-17T00:31:41.539Z,0
2022-11-17T00:32:03.846Z,0
2022-11-17T00:32:38.740Z,0
2022-11-17T00:33:10.681Z,0
2022-11-17T00:33:42.712Z,0
2022-11-17T00:34:12.131Z,0
2022-11-17T00:34:44.283Z,0
2022-11-17T00:35:18.853Z,0
2022-11-17T00:35:41.464Z,0
2022-11-17T00:36:04.008Z,0
2022-11-17T00:36:39.223Z,0
2022-11-17T00:37:11.251Z,0
2022-11-17T00:37:42.614Z,0
2022-11-17T00:38:13.475Z,0
2022-11-17T00:38:43.681Z,0
2022-11-17T00:39:18.794Z,0
2022-11-17T00:39:41.362Z,0
2022-11-17T00:40:05.390Z,0
2022-11-17T00:40:39.650Z,0
2022-11-17T00:41:10.763Z,0
2022-11-17T00:41:43.239Z,0
2022-11-17T00:42:14.646Z,0
2022-11-17T00:42:44.114Z,0
2022-11-17T00:43:18.734Z,0
2022-11-17T00:43:41.426Z,0
2022-11-17T00:44:04.793Z,0
2022-11-17T00:44:39.850Z,0
2022-11-17T00:45:11.094Z,0
2022-11-17T00:45:42.918Z,0
2022-11-17T00:46:12.307Z,0
2022-11-17T00:46:43.898Z,0
2022-11-17T00:47:19.949Z,0
2022-11-17T00:47:42.425Z,0
2022-11-17T00:48:04.698Z,0
2022-11-17T00:48:38.602Z,0
2022-11-17T00:49:11.267Z,0
2022-11-17T00:49:43.118Z,0
2022-11-17T00:50:15.161Z,0
2022-11-17T00:50:37.924Z,0
2022-11-17T00:51:00.519Z,0
2022-11-17T00:51:35.109Z,0
2022-11-17T00:52:07.599Z,0
2022-11-17T00:52:38.699Z,0
2022-11-17T00:53:12.201Z,0
2022-11-17T00:53:42.750Z,0
2022-11-17T00:54:12.299Z,0
2022-11-17T00:54:43.662Z,0
2022-11-17T00:55:19.863Z,0
2022-11-17T00:55:42.403Z,0
2022-11-17T00:56:05.140Z,0
2022-11-17T00:56:38.865Z,0
2022-11-17T00:57:10.720Z,0
2022-11-17T00:57:42.674Z,0
2022-11-17T00:58:11.985Z,0
2022-11-17T00:58:45.265Z,0
2022-11-17T00:59:18.948Z,0
2022-11-17T00:59:41.746Z,0
2022-11-17T01:00:04.448Z,0
2022-11-17T01:00:39.321Z,0
2022-11-17T01:01:10.883Z,0
2022-11-17T01:01:42.690Z,0
2022-11-17T01:02:13.450Z,0
2022-11-17T01:02:43.884Z,0
2022-11-17T01:03:18.708Z,0
2022-11-17T01:03:41.335Z,0
2022-11-17T01:04:04.480Z,0
2022-11-17T01:04:39.185Z,0
2022-11-17T01:05:12.286Z,0
2022-11-17T01:05:43.305Z,0
2022-11-17T01:06:14.590Z,0
2022-11-17T01:06:43.926Z,0
2022-11-17T01:07:18.730Z,0
2022-11-17T01:07:41.458Z,0
2022-11-17T01:08:04.371Z,0
2022-11-17T01:08:38.623Z,0
2022-11-17T01:09:10.747Z,0
2022-11-17T01:09:43.651Z,0
2022-11-17T01:10:15.923Z,0
2022-11-17T01:10:38.300Z,0
2022-11-17T01:11:01.164Z,0
2022-11-17T01:11:34.543Z,0
2022-11-17T01:12:06.468Z,0
2022-11-17T01:12:38.742Z,0
2022-11-17T01:13:10.481Z,0
2022-11-17T01:13:42.854Z,0
2022-11-17T01:14:11.960Z,0
2022-11-17T01:14:44.920Z,0
2022-11-17T01:15:18.843Z,0
2022-11-17T01:15:41.365Z,0
2022-11-17T01:16:04.914Z,0
2022-11-17T01:16:39.224Z,0
2022-11-17T01:17:14.670Z,0
2022-11-17T01:17:37.211Z,0
2022-11-17T01:18:12.216Z,0
2022-11-17T01:18:43.632Z,0
2022-11-17T01:19:18.650Z,0
2022-11-17T01:19:41.495Z,0
2022-11-17T01:20:06.249Z,0
2022-11-17T01:20:38.586Z,0
2022-11-17T01:21:10.767Z,0
2022-11-17T01:21:42.574Z,0
2022-11-17T01:22:14.803Z,0
2022-11-17T01:22:37.591Z,0
2022-11-17T01:22:59.862Z,0
2022-11-17T01:23:34.778Z,0
2022-11-17T01:24:06.687Z,0
2022-11-17T01:24:38.593Z,0
2022-11-17T01:25:10.586Z,0
2022-11-17T01:25:42.546Z,0
2022-11-17T01:26:12.006Z,0
2022-11-17T01:26:43.745Z,0
2022-11-17T01:27:18.579Z,0
2022-11-17T01:27:41.375Z,0
2022-11-17T01:28:03.709Z,0
2022-11-17T01:28:38.771Z,0
2022-11-17T01:29:10.544Z,0
2022-11-17T01:29:42.483Z,0
2022-11-17T01:30:12.175Z,0
2022-11-17T01:30:43.590Z,0
2022-11-17T01:31:18.686Z,0
2022-11-17T01:31:42.999Z,0
2022-11-17T01:32:04.865Z,0
2022-11-17T01:32:39.926Z,0
2022-11-17T01:33:10.532Z,0
2022-11-17T01:33:42.640Z,0
2022-11-17T01:34:14.518Z,0
2022-11-17T01:34:46.583Z,0
2022-11-17T01:35:18.542Z,0
2022-11-17T01:35:41.534Z,0
2022-11-17T01:36:03.809Z,0
2022-11-17T01:36:38.457Z,0
2022-11-17T01:37:10.898Z,0
2022-11-17T01:37:42.503Z,0
2022-11-17T01:38:12.158Z,0
2022-11-17T01:38:43.712Z,0
2022-11-17T01:39:18.658Z,0
2022-11-17T01:39:41.407Z,0
2022-11-17T01:40:05.184Z,0
2022-11-17T01:40:38.451Z,0
2022-11-17T01:41:10.776Z,0
2022-11-17T01:41:42.587Z,0
2022-11-17T01:42:14.615Z,0
2022-11-17T01:42:37.502Z,0
2022-11-17T01:42:59.897Z,0
2022-11-17T01:43:36.252Z,0
2022-11-17T01:44:06.706Z,0
2022-11-17T01:44:38.603Z,0
2022-11-17T01:45:11.012Z,1.8
2022-11-17T01:45:42.643Z,1.8
2022-11-17T01:46:14.501Z,1.8
2022-11-17T01:46:54.634Z,1.8
2022-11-17T01:47:14.526Z,1.8
2022-11-17T01:47:43.699Z,1.8
2022-11-17T01:48:06.241Z,1.8
2022-11-17T01:48:38.799Z,1.8
2022-11-17T01:49:10.790Z,1.8
2022-11-17T01:49:42.931Z,1.8
2022-11-17T01:50:14.713Z,1.8
2022-11-17T01:50:40.037Z,1.8
2022-11-17T01:51:01.178Z,1.8
2022-11-17T01:51:34.575Z,1.8
2022-11-17T01:52:06.662Z,1.8
2022-11-17T01:52:39.004Z,1.8
2022-11-17T01:53:10.921Z,1.8
2022-11-17T01:53:42.536Z,1.8
2022-11-17T01:54:14.856Z,1.8
2022-11-17T01:54:43.830Z,1.8
2022-11-17T01:55:19.183Z,0
2022-11-17T01:55:41.496Z,0
2022-11-17T01:56:03.955Z,0
2022-11-17T01:56:38.654Z,0
2022-11-17T01:57:10.592Z,0
2022-11-17T01:57:48.501Z,0
2022-11-17T01:58:10.911Z,0
2022-11-17T01:58:43.870Z,0
2022-11-17T01:59:18.784Z,0
2022-11-17T01:59:41.457Z,0
2022-11-17T02:00:04.830Z,0
2022-11-17T02:00:38.614Z,0
2022-11-17T02:01:11.394Z,0
2022-11-17T02:01:42.676Z,0
2022-11-17T02:02:13.231Z,0
2022-11-17T02:02:43.757Z,0
2022-11-17T02:03:18.906Z,0
2022-11-17T02:03:41.729Z,0
2022-11-17T02:04:04.198Z,1.1
2022-11-17T02:04:38.899Z,1.1
2022-11-17T02:05:10.683Z,1.1
2022-11-17T02:05:42.693Z,1.1
2022-11-17T02:06:12.169Z,1.1
2022-11-17T02:06:44.592Z,1.1
2022-11-17T02:07:18.842Z,1.1
2022-11-17T02:07:41.529Z,1.1
2022-11-17T02:08:05.124Z,1.1
2022-11-17T02:08:38.805Z,1.1
2022-11-17T02:09:11.640Z,1.1
2022-11-17T02:09:42.822Z,1.1
2022-11-17T02:10:12.690Z,1.1
2022-11-17T02:10:50.243Z,1.1
2022-11-17T02:11:18.918Z,1.1
2022-11-17T02:11:41.632Z,1.1
2022-11-17T02:12:04.333Z,1.1
2022-11-17T02:12:38.957Z,1.1
2022-11-17T02:13:10.683Z,1.1
2022-11-17T02:13:43.309Z,1.1
2022-11-17T02:14:14.639Z,1.8
2022-11-17T02:14:47.107Z,1.8
2022-11-17T02:15:19.065Z,1.8
2022-11-17T02:15:41.813Z,1.8
2022-11-17T02:16:04.443Z,1.8
2022-11-17T02:16:38.710Z,1.8
2022-11-17T02:17:14.254Z,1.8
2022-11-17T02:17:42.596Z,1.8
2022-11-17T02:18:12.196Z,1.8
2022-11-17T02:18:43.875Z,1.8
2022-11-17T02:19:18.564Z,1.8
2022-11-17T02:19:41.431Z,1.8
2022-11-17T02:20:03.679Z,1.8
2022-11-17T02:20:38.928Z,1.8
2022-11-17T02:21:10.629Z,1.8
2022-11-17T02:21:43.177Z,1.8
2022-11-17T02:22:13.946Z,2.9
2022-11-17T02:22:44.434Z,2.9
2022-11-17T02:23:19.280Z,2.9
2022-11-17T02:23:41.888Z,2.9
2022-11-17T02:24:04.623Z,2.9
2022-11-17T02:24:38.857Z,1.1
2022-11-17T02:25:10.956Z,1.1
2022-11-17T02:25:42.989Z,1.1
2022-11-17T02:26:13.238Z,1.1
2022-11-17T02:26:44.277Z,1.1
2022-11-17T02:27:18.748Z,1.1
2022-11-17T02:27:41.624Z,1.1
2022-11-17T02:28:04.047Z,1.1
2022-11-17T02:28:39.053Z,1.1
2022-11-17T02:29:10.788Z,1.1
2022-11-17T02:29:43.651Z,1.1
2022-11-17T02:30:14.838Z,1.1
2022-11-17T02:30:44.192Z,1.1
2022-11-17T02:31:18.717Z,1.1
2022-11-17T02:31:41.378Z,1.1
2022-11-17T02:32:03.839Z,1.1
2022-11-17T02:32:38.840Z,1.1
2022-11-17T02:33:10.638Z,1.1
2022-11-17T02:33:42.986Z,0
2022-11-17T02:34:14.855Z,0
2022-11-17T02:34:37.628Z,0
2022-11-17T02:35:00.108Z,0
2022-11-17T02:35:34.573Z,0
2022-11-17T02:36:06.417Z,0
2022-11-17T02:36:39.865Z,0
2022-11-17T02:37:10.737Z,0
2022-11-17T02:37:42.554Z,0
2022-11-17T02:38:12.830Z,0
2022-11-17T02:38:44.573Z,0
2022-11-17T02:39:19.164Z,0
2022-11-17T02:39:41.855Z,0
2022-11-17T02:40:04.712Z,0
2022-11-17T02:40:38.675Z,0
2022-11-17T02:41:11.875Z,0
2022-11-17T02:41:42.789Z,0
2022-11-17T02:42:12.229Z,0
2022-11-17T02:42:43.802Z,0
2022-11-17T02:43:18.570Z,0
2022-11-17T02:43:41.245Z,0
2022-11-17T02:44:03.683Z,0
2022-11-17T02:44:39.096Z,0
2022-11-17T02:45:12.285Z,0
2022-11-17T02:45:43.755Z,0
2022-11-17T02:46:14.804Z,0
2022-11-17T02:46:37.478Z,0
2022-11-17T02:47:00.657Z,0
2022-11-17T02:47:35.826Z,0
2022-11-17T02:48:06.484Z,0
2022-11-17T02:48:39.236Z,0
2022-11-17T02:49:10.906Z,0
2022-11-17T02:49:42.924Z,0
2022-11-17T02:50:13.158Z,0
2022-11-17T02:50:43.735Z,0
2022-11-17T02:51:20.297Z,0
2022-11-17T02:51:41.355Z,0
2022-11-17T02:52:03.684Z,0
2022-11-17T02:52:38.992Z,0
2022-11-17T02:53:10.860Z,0
2022-11-17T02:53:44.332Z,0
2022-11-17T02:54:12.091Z,0
2022-11-17T02:54:44.046Z,0
2022-11-17T02:55:19.052Z,0
2022-11-17T02:55:41.443Z,0
2022-11-17T02:56:05.671Z,0
2022-11-17T02:56:38.641Z,0
2022-11-17T02:57:11.441Z,0
2022-11-17T02:57:43.044Z,0
2022-11-17T02:58:15.034Z,0
2022-11-17T02:58:37.885Z,0
2022-11-17T02:59:00.243Z,0
2022-11-17T02:59:35.717Z,0
2022-11-17T03:00:09.045Z,0
2022-11-17T03:00:40.336Z,0
2022-11-17T03:01:11.179Z,0
2022-11-17T03:01:43.142Z,1.8
2022-11-17T03:02:12.355Z,1.8
2022-11-17T03:02:44.074Z,1.8
2022-11-17T03:03:20.094Z,1.8
2022-11-17T03:03:41.995Z,1.8
2022-11-17T03:04:06.217Z,1.8
2022-11-17T03:04:38.649Z,1.8
2022-11-17T03:05:11.470Z,1.8
2022-11-17T03:05:43.357Z,1.8
2022-11-17T03:06:14.668Z,1.8
2022-11-17T03:06:44.075Z,1.8
2022-11-17T03:07:19.557Z,1.8
2022-11-17T03:07:41.975Z,1.8
2022-11-17T03:08:04.359Z,1.8
2022-11-17T03:08:38.791Z,1.8
2022-11-17T03:09:10.434Z,1.8
2022-11-17T03:09:42.846Z,1.8
2022-11-17T03:10:12.266Z,1.8
2022-11-17T03:10:47.823Z,1.8
2022-11-17T03:11:20.724Z,1.8
2022-11-17T03:11:41.920Z,1.8
2022-11-17T03:12:05.083Z,1.8
2022-11-17T03:12:38.462Z,0
2022-11-17T03:13:10.716Z,0
2022-11-17T03:13:42.634Z,0
2022-11-17T03:14:12.365Z,0
2022-11-17T03:14:44.727Z,0
2022-11-17T03:15:19.253Z,0
2022-11-17T03:15:44.458Z,0
2022-11-17T03:16:04.335Z,0
2022-11-17T03:16:38.943Z,0
2022-11-17T03:17:10.529Z,0
2022-11-17T03:17:43.794Z,0
2022-11-17T03:18:14.594Z,0
2022-11-17T03:18:37.395Z,0
2022-11-17T03:19:00.540Z,0
2022-11-17T03:19:34.485Z,0
2022-11-17T03:20:06.700Z,0
2022-11-17T03:20:38.720Z,0
2022-11-17T03:21:11.204Z,0
2022-11-17T03:21:42.960Z,0
2022-11-17T03:22:13.425Z,0
2022-11-17T03:22:43.776Z,0
2022-11-17T03:23:18.698Z,0
2022-11-17T03:23:41.496Z,0
2022-11-17T03:24:04.052Z,0
2022-11-17T03:24:38.794Z,0
2022-11-17T03:25:10.710Z,0
2022-11-17T03:25:42.554Z,0
2022-11-17T03:26:12.556Z,0
2022-11-17T03:26:44.075Z,0
2022-11-17T03:27:18.942Z,0
2022-11-17T03:27:41.635Z,0
2022-11-17T03:28:04.305Z,0
2022-11-17T03:28:38.496Z,0
2022-11-17T03:29:10.908Z,0
2022-11-17T03:29:42.730Z,0
2022-11-17T03:30:12.397Z,0
2022-11-17T03:30:43.954Z,0
2022-11-17T03:31:18.690Z,0
2022-11-17T03:31:41.193Z,0
2022-11-17T03:32:03.521Z,0
2022-11-17T03:35:02.728Z,0
2022-11-17T03:35:34.624Z,0
2022-11-17T03:36:06.449Z,0
2022-11-17T03:36:38.937Z,0
2022-11-17T03:37:14.383Z,1.1
2022-11-17T03:37:43.744Z,1.1
2022-11-17T03:38:21.665Z,1.1
2022-11-17T03:38:51.265Z,1.1
2022-11-17T03:39:13.634Z,1.1
2022-11-17T03:39:43.920Z,1.1
2022-11-17T03:40:07.706Z,1.1
2022-11-17T03:40:38.824Z,1.1
2022-11-17T03:41:10.820Z,1.1
2022-11-17T03:41:50.309Z,2.9
2022-11-17T03:42:12.625Z,2.9
2022-11-17T03:42:43.729Z,2.9
2022-11-17T03:43:18.422Z,2.9
2022-11-17T03:43:41.439Z,2.9
2022-11-17T03:44:03.655Z,2.9
2022-11-17T03:44:38.673Z,2.9
2022-11-17T03:45:10.702Z,2.9
2022-11-17T03:45:42.467Z,2.9
2022-11-17T03:46:14.631Z,2.9
2022-11-17T03:46:38.185Z,2.9
2022-11-17T03:47:00.087Z,2.9
2022-11-17T03:47:34.714Z,1.8
2022-11-17T03:48:06.729Z,1.8
2022-11-17T03:48:38.804Z,1.8
2022-11-17T03:49:10.586Z,1.8
2022-11-17T03:49:42.833Z,1.8
2022-11-17T03:50:12.293Z,1.8
2022-11-17T03:50:43.807Z,1.8
2022-11-17T03:51:18.532Z,1.8
2022-11-17T03:51:42.556Z,1.8
2022-11-17T03:52:04.831Z,1.8
2022-11-17T03:52:38.544Z,0
2022-11-17T03:53:10.650Z,0
2022-11-17T03:53:42.522Z,0
2022-11-17T03:54:12.174Z,0
2022-11-17T03:54:43.770Z,0
2022-11-17T03:55:18.525Z,0
2022-11-17T03:55:41.335Z,0
2022-11-17T03:56:03.381Z,0
2022-11-17T03:56:38.472Z,0
2022-11-17T03:57:10.607Z,0
2022-11-17T03:57:42.619Z,0
2022-11-17T03:58:12.169Z,0
2022-11-17T03:58:43.717Z,0
2022-11-17T03:59:18.641Z,0
2022-11-17T03:59:41.576Z,0
2022-11-17T04:00:04.014Z,0
2022-11-17T04:00:38.811Z,0
2022-11-17T04:01:10.491Z,0
2022-11-17T04:01:42.596Z,0
2022-11-17T04:02:12.188Z,0
2022-11-17T04:02:43.733Z,0
2022-11-17T04:03:18.752Z,0
2022-11-17T04:03:41.638Z,0
2022-11-17T04:04:05.945Z,0
2022-11-17T04:04:38.771Z,0
2022-11-17T04:05:10.370Z,0
2022-11-17T04:05:42.483Z,0
2022-11-17T04:06:12.174Z,0
2022-11-17T04:06:43.765Z,0
2022-11-17T04:07:18.765Z,0
2022-11-17T04:07:41.308Z,0
2022-11-17T04:08:05.313Z,0
2022-11-17T04:08:38.755Z,0
2022-11-17T04:09:10.499Z,0
2022-11-17T04:09:42.683Z,0
2022-11-17T04:10:12.120Z,0
2022-11-17T04:10:43.724Z,0
2022-11-17T04:11:18.916Z,0
2022-11-17T04:11:41.775Z,0
2022-11-17T04:12:04.591Z,0
2022-11-17T04:12:39.406Z,0
2022-11-17T04:13:11.935Z,0
2022-11-17T04:13:43.803Z,1.1
2022-11-17T04:14:14.601Z,1.1
2022-11-17T04:14:52.318Z,1.1
2022-11-17T04:15:14.693Z,1.1
2022-11-17T04:15:43.758Z,1.1
2022-11-17T04:16:06.527Z,1.1
2022-11-17T04:16:38.659Z,1.1
2022-11-17T04:17:10.683Z,1.1
2022-11-17T04:17:42.753Z,1.1
2022-11-17T04:18:12.892Z,1.1
2022-11-17T04:18:43.973Z,1.1
2022-11-17T04:19:19.119Z,1.1
2022-11-17T04:19:41.617Z,1.1
2022-11-17T04:20:04.340Z,2.9
2022-11-17T04:20:38.653Z,2.9
2022-11-17T04:21:10.607Z,2.9
2022-11-17T04:21:42.996Z,2.9
2022-11-17T04:22:15.323Z,2.9
2022-11-17T04:22:37.965Z,2.9
2022-11-17T04:23:00.854Z,4.8
2022-11-17T04:23:34.803Z,4.8
2022-11-17T04:24:06.658Z,4.8
2022-11-17T04:24:38.580Z,3.6
2022-11-17T04:25:10.847Z,4.8
2022-11-17T04:25:42.924Z,4.8
2022-11-17T04:26:12.859Z,4.8
2022-11-17T04:26:44.320Z,4.8
2022-11-17T04:27:18.805Z,6.6
2022-11-17T04:27:41.433Z,6.6
2022-11-17T04:28:03.936Z,6.6
2022-11-17T04:28:38.663Z,6.6
2022-11-17T04:29:11.017Z,7.7
2022-11-17T04:29:42.687Z,7.7
2022-11-17T04:30:12.252Z,5.9
2022-11-17T04:30:47.075Z,5.9
2022-11-17T04:31:18.396Z,5.9
2022-11-17T04:31:41.249Z,7.7
2022-11-17T04:32:04.138Z,7.7
2022-11-17T04:32:38.530Z,7.7
2022-11-17T04:33:10.600Z,7.7
2022-11-17T04:33:42.543Z,5.9
2022-11-17T04:34:13.763Z,5.9
2022-11-17T04:34:44.185Z,5.9
2022-11-17T04:35:18.846Z,5.9
2022-11-17T04:35:41.514Z,5.9
2022-11-17T04:36:03.879Z,5.9
2022-11-17T04:36:38.824Z,5.9
2022-11-17T04:37:10.828Z,5.9
2022-11-17T04:37:43.748Z,4.1
2022-11-17T04:38:14.860Z,4.1
2022-11-17T04:38:44.043Z,4.1
2022-11-17T04:39:19.063Z,4.8
2022-11-17T04:39:41.646Z,4.8
2022-11-17T04:40:05.584Z,4.8
2022-11-17T04:40:38.666Z,4.8
2022-11-17T04:41:11.372Z,4.8
2022-11-17T04:41:42.553Z,4.8
2022-11-17T04:42:12.326Z,2.9
2022-11-17T04:42:44.290Z,2.9
2022-11-17T04:43:19.750Z,4.1
2022-11-17T04:43:42.128Z,4.1
2022-11-17T04:44:04.685Z,4.1
2022-11-17T04:44:39.190Z,4.1
2022-11-17T04:45:10.691Z,4.1
2022-11-17T04:45:42.894Z,2.9
2022-11-17T04:46:12.178Z,4.8
2022-11-17T04:46:48.731Z,4.8
2022-11-17T04:47:18.785Z,4.8
2022-11-17T04:47:41.334Z,4.8
2022-11-17T04:48:04.035Z,4.8
2022-11-17T04:48:39.187Z,4.8
2022-11-17T04:49:12.121Z,4.8
2022-11-17T04:49:42.434Z,4.8
2022-11-17T04:50:12.471Z,4.1
2022-11-17T04:50:43.940Z,4.1
2022-11-17T04:51:18.641Z,4.1
2022-11-17T04:51:41.029Z,4.1
2022-11-17T04:52:03.424Z,4.1
2022-11-17T04:52:38.612Z,4.1
2022-11-17T04:53:11.257Z,4.1
2022-11-17T04:53:43.031Z,2.9
2022-11-17T04:54:12.484Z,2.9
2022-11-17T04:54:44.836Z,4.8
2022-11-17T04:55:19.567Z,4.8
2022-11-17T04:55:42.117Z,4.8
2022-11-17T04:56:04.619Z,4.8
2022-11-17T04:56:39.003Z,4.8
2022-11-17T04:57:10.856Z,4.8
2022-11-17T04:57:42.779Z,2.9
2022-11-17T04:58:13.215Z,2.9
2022-11-17T04:58:43.752Z,4.1
2022-11-17T04:59:18.557Z,4.1
2022-11-17T04:59:41.359Z,4.1
2022-11-17T05:00:04.374Z,4.1
2022-11-17T05:00:39.726Z,4.1
2022-11-17T05:01:10.729Z,4.1
2022-11-17T05:01:42.530Z,2.9
2022-11-17T05:02:12.303Z,2.9
2022-11-17T05:02:46.577Z,2.9
2022-11-17T05:03:19.111Z,2.9
2022-11-17T05:03:41.932Z,2.9
2022-11-17T05:04:05.029Z,2.9
2022-11-17T05:04:38.809Z,2.9
2022-11-17T05:05:10.511Z,2.9
2022-11-17T05:05:43.251Z,2.9
2022-11-17T05:06:14.549Z,2.9
2022-11-17T05:06:46.752Z,2.9
2022-11-17T05:07:19.279Z,2.9
2022-11-17T05:07:41.943Z,2.9
2022-11-17T05:08:04.448Z,2.9
2022-11-17T05:08:38.719Z,2.9
2022-11-17T05:09:10.527Z,2.9
2022-11-17T05:09:42.613Z,1.8
2022-11-17T05:10:12.041Z,3.6
2022-11-17T05:10:44.688Z,3.6
2022-11-17T05:11:18.532Z,3.6
2022-11-17T05:11:41.159Z,3.6
2022-11-17T05:12:03.706Z,3.6
2022-11-17T05:12:38.885Z,3.6
2022-11-17T05:13:10.566Z,3.6
2022-11-17T05:13:43.685Z,3.6
2022-11-17T05:14:15.134Z,3.6
2022-11-17T05:14:46.621Z,3.6
2022-11-17T05:15:19.344Z,1.8
2022-11-17T05:15:41.953Z,1.8
2022-11-17T05:16:04.234Z,1.8
2022-11-17T05:16:39.011Z,1.8
2022-11-17T05:17:11.907Z,1.8
2022-11-17T05:17:42.853Z,1.8
2022-11-17T05:18:12.631Z,1.8
2022-11-17T05:18:46.812Z,1.8
2022-11-17T05:19:18.640Z,1.8
2022-11-17T05:19:41.312Z,2.9
2022-11-17T05:20:03.777Z,2.9
2022-11-17T05:20:38.510Z,2.9
2022-11-17T05:21:10.845Z,2.9
2022-11-17T05:21:43.060Z,1.1
2022-11-17T05:22:12.906Z,1.1
2022-11-17T05:22:43.847Z,1.1
2022-11-17T05:23:19.272Z,1.1
2022-11-17T05:23:42.298Z,1.1
2022-11-17T05:24:05.199Z,2.9
2022-11-17T05:24:38.759Z,2.9
2022-11-17T05:25:10.652Z,2.9
2022-11-17T05:25:43.089Z,2.9
2022-11-17T05:26:12.301Z,2.9
2022-11-17T05:26:47.607Z,2.9
2022-11-17T05:27:18.785Z,2.9
2022-11-17T05:27:41.736Z,2.9
2022-11-17T05:28:04.914Z,2.9
2022-11-17T05:28:38.661Z,2.9
2022-11-17T05:29:10.652Z,4.1
2022-11-17T05:29:43.193Z,4.1
2022-11-17T05:30:14.520Z,2.9
2022-11-17T05:30:46.444Z,2.9
2022-11-17T05:31:20.926Z,2.9
2022-11-17T05:31:43.604Z,2.9
2022-11-17T05:32:06.178Z,2.9
2022-11-17T05:32:38.724Z,2.9
2022-11-17T05:33:10.529Z,2.9
2022-11-17T05:33:43.238Z,2.9
2022-11-17T05:34:12.571Z,1.1
2022-11-17T05:34:44.029Z,1.1
2022-11-17T05:35:18.819Z,1.1
2022-11-17T05:35:41.184Z,1.1
2022-11-17T05:36:03.954Z,1.1
2022-11-17T05:36:38.515Z,1.1
2022-11-17T05:37:11.593Z,1.1
2022-11-17T05:37:42.934Z,1.1
2022-11-17T05:38:12.719Z,1.1
2022-11-17T05:38:43.923Z,1.1
2022-11-17T05:39:18.667Z,0
2022-11-17T05:39:41.314Z,0
2022-11-17T05:40:05.295Z,0
2022-11-17T05:40:39.280Z,0
2022-11-17T05:41:10.922Z,0
2022-11-17T05:41:42.516Z,0
2022-11-17T05:42:12.193Z,0
2022-11-17T05:42:50.728Z,0
2022-11-17T05:43:18.473Z,0
2022-11-17T05:43:41.052Z,0
2022-11-17T05:44:03.517Z,0
2022-11-17T05:44:44.146Z,0
2022-11-17T05:45:11.290Z,0
2022-11-17T05:45:42.814Z,0
2022-11-17T05:46:12.149Z,0
2022-11-17T05:46:46.476Z,0
2022-11-17T05:47:19.288Z,0
2022-11-17T05:47:41.841Z,0
2022-11-17T05:48:04.436Z,0
2022-11-17T05:48:39.439Z,0
2022-11-17T05:49:10.564Z,0
2022-11-17T05:49:42.612Z,0
2022-11-17T05:50:12.192Z,0
2022-11-17T05:50:46.647Z,0
2022-11-17T05:51:19.077Z,0
2022-11-17T05:51:41.218Z,0
2022-11-17T05:52:04.070Z,0
2022-11-17T05:52:38.539Z,0
2022-11-17T05:53:11.103Z,0
2022-11-17T05:53:42.697Z,0
2022-11-17T05:54:12.929Z,0
2022-11-17T05:54:46.764Z,0
2022-11-17T05:55:19.798Z,0
2022-11-17T05:55:42.749Z,0
2022-11-17T05:56:04.840Z,0
2022-11-17T05:56:38.613Z,0
2022-11-17T05:57:10.432Z,0
2022-11-17T05:57:42.641Z,0
2022-11-17T05:58:12.269Z,0
2022-11-17T05:58:45.281Z,0
2022-11-17T05:59:22.145Z,0
2022-11-17T05:59:41.887Z,0
2022-11-17T06:00:05.046Z,0
2022-11-17T06:00:39.754Z,0
2022-11-17T06:01:10.804Z,0
2022-11-17T06:01:42.468Z,0
2022-11-17T06:02:12.682Z,0
2022-11-17T06:02:46.349Z,0
2022-11-17T06:03:19.465Z,0
2022-11-17T06:03:41.863Z,0
2022-11-17T06:04:04.520Z,0
2022-11-17T06:04:38.665Z,0
2022-11-17T06:05:13.260Z,0
2022-11-17T06:05:42.509Z,0
2022-11-17T06:06:12.139Z,0
2022-11-17T06:06:46.843Z,0
2022-11-17T06:07:19.049Z,0
2022-11-17T06:07:41.423Z,0
2022-11-17T06:08:04.589Z,0
2022-11-17T06:08:38.420Z,0
2022-11-17T06:09:11.193Z,0
2022-11-17T06:09:43.182Z,0
2022-11-17T06:10:12.719Z,0
2022-11-17T06:10:43.770Z,0
2022-11-17T06:11:18.835Z,0
2022-11-17T06:11:41.419Z,0
2022-11-17T06:12:06.156Z,0
2022-11-17T06:12:38.633Z,0
2022-11-17T06:13:10.806Z,0
2022-11-17T06:13:43.550Z,0
2022-11-17T06:14:14.665Z,0
2022-11-17T06:14:46.698Z,0
2022-11-17T06:15:19.465Z,0
2022-11-17T06:15:41.802Z,0
2022-11-17T06:16:04.315Z,0
2022-11-17T06:16:39.136Z,0
2022-11-17T06:17:10.821Z,0
2022-11-17T06:17:42.396Z,0
2022-11-17T06:18:12.636Z,0
2022-11-17T06:18:46.647Z,0
2022-11-17T06:19:18.941Z,0
2022-11-17T06:19:41.910Z,0
2022-11-17T06:20:04.379Z,0
2022-11-17T06:20:39.592Z,0
2022-11-17T06:21:13.871Z,0
2022-11-17T06:22:09.998Z,0
2022-11-17T06:22:13.490Z,0
2022-11-17T06:22:48.613Z,0
2022-11-17T06:23:18.427Z,0
2022-11-17T06:23:41.018Z,0
2022-11-17T06:24:03.788Z,0
2022-11-17T06:24:38.763Z,0
2022-11-17T06:25:10.924Z,0
2022-11-17T06:25:43.162Z,0
2022-11-17T06:26:15.719Z,0
2022-11-17T06:26:47.671Z,0
2022-11-17T06:27:18.908Z,0
2022-11-17T06:27:41.632Z,0
2022-11-17T06:28:03.916Z,0
2022-11-17T06:28:38.584Z,0
2022-11-17T06:29:10.904Z,0
2022-11-17T06:29:44.623Z,0
2022-11-17T06:30:12.340Z,0
2022-11-17T06:30:47.234Z,0
2022-11-17T06:31:18.451Z,0
2022-11-17T06:31:41.044Z,0
2022-11-17T06:32:03.641Z,0
2022-11-17T06:32:38.653Z,0
2022-11-17T06:33:10.838Z,0
2022-11-17T06:33:42.500Z,0
2022-11-17T06:34:12.297Z,0
2022-11-17T06:34:51.912Z,0
2022-11-17T06:35:19.099Z,0
2022-11-17T06:35:41.762Z,0
2022-11-17T06:36:04.350Z,0
2022-11-17T06:36:38.655Z,0
2022-11-17T06:37:10.609Z,0
2022-11-17T06:37:44.583Z,0
2022-11-17T06:38:21.018Z,0
2022-11-17T06:38:43.785Z,0
2022-11-17T06:39:19.060Z,0
2022-11-17T06:39:41.151Z,0
2022-11-17T06:40:07.052Z,0
2022-11-17T06:40:38.454Z,0
2022-11-17T06:41:12.054Z,0
2022-11-17T06:41:42.362Z,0
2022-11-17T06:42:14.580Z,0
2022-11-17T06:42:46.340Z,0
2022-11-17T06:43:18.356Z,0
2022-11-17T06:43:41.261Z,0
2022-11-17T06:44:03.549Z,0
2022-11-17T06:44:38.565Z,0
2022-11-17T06:45:10.594Z,0
2022-11-17T06:45:42.389Z,0
2022-11-17T06:46:12.326Z,0
2022-11-17T06:46:49.239Z,0
2022-11-17T06:47:19.091Z,0
2022-11-17T06:47:41.165Z,0
2022-11-17T06:48:03.628Z,0
2022-11-17T06:48:38.896Z,0
2022-11-17T06:49:10.395Z,0
2022-11-17T06:49:42.434Z,0
2022-11-17T06:50:12.149Z,0
2022-11-17T06:50:46.339Z,0
2022-11-17T06:51:18.839Z,0
2022-11-17T06:51:45.178Z,0
2022-11-17T06:52:03.745Z,0
2022-11-17T06:52:38.459Z,0
2022-11-17T06:53:10.539Z,0
2022-11-17T06:53:42.608Z,0
2022-11-17T06:54:15.038Z,0
2022-11-17T06:54:46.462Z,0
2022-11-17T06:55:18.669Z,0
2022-11-17T06:55:41.310Z,0
2022-11-17T06:56:03.657Z,0
2022-11-17T06:56:38.316Z,0
2022-11-17T06:57:10.649Z,0
2022-11-17T06:57:42.419Z,0
2022-11-17T06:58:12.092Z,0
2022-11-17T06:58:46.579Z,0
2022-11-17T06:59:18.687Z,0
2022-11-17T06:59:42.310Z,0
2022-11-17T07:00:04.647Z,0
2022-11-17T07:00:38.917Z,0
2022-11-17T07:01:10.546Z,0
2022-11-17T07:01:42.504Z,0
2022-11-17T07:02:12.165Z,0
2022-11-17T07:02:46.474Z,0
2022-11-17T07:03:18.590Z,0
2022-11-17T07:03:41.765Z,0
2022-11-17T07:04:04.202Z,0
2022-11-17T07:04:38.504Z,0
2022-11-17T07:05:10.394Z,0
2022-11-17T07:05:42.886Z,0
2022-11-17T07:06:12.278Z,0
2022-11-17T07:06:46.625Z,0
2022-11-17T07:07:18.390Z,0
2022-11-17T07:07:41.169Z,0
2022-11-17T07:08:03.497Z,0
2022-11-17T07:08:38.965Z,0
2022-11-17T07:09:10.435Z,0
2022-11-17T07:09:42.461Z,0
2022-11-17T07:10:12.167Z,0
2022-11-17T07:10:49.323Z,0
2022-11-17T07:11:18.656Z,0
2022-11-17T07:11:41.166Z,0
2022-11-17T07:12:03.567Z,0
2022-11-17T07:12:38.694Z,0
2022-11-17T07:13:10.486Z,0
2022-11-17T07:13:42.438Z,0
2022-11-17T07:14:12.925Z,0
2022-11-17T07:14:46.736Z,0